<?xml version='1.0' encoding='UTF-8'?><gpx version="1.1" creator="JPX - https://github.com/jenetics/jpx" xmlns="http://www.topografix.com/GPX/1/1"><trk><trkseg><trkpt lat="39.2486021726791" lon="9.062316218701138"><ele>5.0</ele><time>2026-04-16T21:21:56.003Z</time></trkpt><trkpt lat="39.2485353732438" lon="9.062386695694132"><ele>5.0</ele><time>2026-04-16T21:21:57.003Z</time></trkpt><trkpt lat="39.248469928292856" lon="9.06244618670058"><ele>5.0</ele><time>2026-04-16T21:21:58.003Z</time></trkpt><trkpt lat="39.24840197481241" lon="9.06249582227308"><ele>5.0</ele><time>2026-04-16T21:21:59.003Z</time></trkpt><trkpt lat="39.24833514355174" lon="9.062547338208056"><ele>5.0</ele><time>2026-04-16T21:22:00.003Z</time></trkpt><trkpt lat="39.24820736231107" lon="9.062679338001928"><ele>4.8</ele><time>2026-04-16T21:22:02.002Z</time></trkpt><trkpt lat="39.24814021104785" lon="9.062741206700148"><ele>4.6</ele><time>2026-04-16T21:22:03.002Z</time></trkpt><trkpt lat="39.24802124381806" lon="9.0628210969636"><ele>4.4</ele><time>2026-04-16T21:22:05.002Z</time></trkpt><trkpt lat="39.247964688948045" lon="9.062907324628304"><ele>4.2</ele><time>2026-04-16T21:22:06.002Z</time></trkpt><trkpt lat="39.24788338598023" lon="9.062997052908369"><ele>4.0</ele><time>2026-04-16T21:22:07.001Z</time></trkpt><trkpt lat="39.24779752759856" lon="9.06305996085933"><ele>3.6</ele><time>2026-04-16T21:22:08.001Z</time></trkpt><trkpt lat="39.247707135786406" lon="9.063126882450788"><ele>3.2</ele><time>2026-04-16T21:22:09.001Z</time></trkpt><trkpt lat="39.247625038682244" lon="9.0631978648441"><ele>2.8000000000000003</ele><time>2026-04-16T21:22:10.001Z</time></trkpt><trkpt lat="39.247538261625664" lon="9.063272402159372"><ele>2.4000000000000004</ele><time>2026-04-16T21:22:11.001Z</time></trkpt><trkpt lat="39.24743501860706" lon="9.063360040825982"><ele>2.0</ele><time>2026-04-16T21:22:12.001Z</time></trkpt><trkpt lat="39.24733549251723" lon="9.06345726091182"><ele>1.6</ele><time>2026-04-16T21:22:13.001Z</time></trkpt><trkpt lat="39.24727943372247" lon="9.063544911757516"><ele>1.2000000000000002</ele><time>2026-04-16T21:22:14.001Z</time></trkpt><trkpt lat="39.24721303920246" lon="9.063632546891114"><ele>0.8</ele><time>2026-04-16T21:22:15.001Z</time></trkpt><trkpt lat="39.24712555550599" lon="9.063688731864103"><ele>0.4</ele><time>2026-04-16T21:22:16.001Z</time></trkpt><trkpt lat="39.247044788028894" lon="9.063740245975684"><ele>0.0</ele><time>2026-04-16T21:22:17.001Z</time></trkpt><trkpt lat="39.24696548740328" lon="9.063800457940802"><ele>0.0</ele><time>2026-04-16T21:22:18.001Z</time></trkpt><trkpt lat="39.24688382784269" lon="9.063860224989122"><ele>0.0</ele><time>2026-04-16T21:22:19.001Z</time></trkpt><trkpt lat="39.24679928428655" lon="9.063919151140245"><ele>0.0</ele><time>2026-04-16T21:22:20.001Z</time></trkpt><trkpt lat="39.24671234377748" lon="9.063976338684537"><ele>0.0</ele><time>2026-04-16T21:22:21.001Z</time></trkpt><trkpt lat="39.246534854825654" lon="9.064062524810645"><ele>-0.4</ele><time>2026-04-16T21:22:23Z</time></trkpt><trkpt lat="39.24645186318362" lon="9.064119923068462"><ele>-0.8</ele><time>2026-04-16T21:22:24Z</time></trkpt><trkpt lat="39.24637054831432" lon="9.064167503253811"><ele>-1.2000000000000002</ele><time>2026-04-16T21:22:25Z</time></trkpt><trkpt lat="39.24628595449056" lon="9.064234705747248"><ele>-1.6</ele><time>2026-04-16T21:22:26Z</time></trkpt><trkpt lat="39.24620542896869" lon="9.064293474022632"><ele>-2.0</ele><time>2026-04-16T21:22:27Z</time></trkpt><trkpt lat="39.24613897029072" lon="9.064351278906027"><ele>-1.9999999999999998</ele><time>2026-04-16T21:22:28Z</time></trkpt><trkpt lat="39.24607898757013" lon="9.064449096843191"><ele>-2.0</ele><time>2026-04-16T21:22:29Z</time></trkpt><trkpt lat="39.24600444025883" lon="9.064507207463253"><ele>-2.0</ele><time>2026-04-16T21:22:30Z</time></trkpt><trkpt lat="39.24593254888211" lon="9.064580296782097"><ele>-2.0</ele><time>2026-04-16T21:22:31Z</time></trkpt><trkpt lat="39.2458639967585" lon="9.064642715875083"><ele>-1.9999999999999998</ele><time>2026-04-16T21:22:32Z</time></trkpt><trkpt lat="39.245800311831346" lon="9.064692624326927"><ele>-2.0</ele><time>2026-04-16T21:22:33Z</time></trkpt><trkpt lat="39.245730464032945" lon="9.06475732382441"><ele>-1.9999999999999998</ele><time>2026-04-16T21:22:34Z</time></trkpt><trkpt lat="39.245657302447505" lon="9.064819295123918"><ele>-2.0</ele><time>2026-04-16T21:22:35Z</time></trkpt><trkpt lat="39.245585517340594" lon="9.064874473855882"><ele>-2.0</ele><time>2026-04-16T21:22:36Z</time></trkpt><trkpt lat="39.24550770446143" lon="9.064932838318585"><ele>-2.0</ele><time>2026-04-16T21:22:37Z</time></trkpt><trkpt lat="39.2454247009543" lon="9.064976769330316"><ele>-1.9999999999999998</ele><time>2026-04-16T21:22:38Z</time></trkpt><trkpt lat="39.245356017424655" lon="9.065007536869091"><ele>-2.0</ele><time>2026-04-16T21:22:39Z</time></trkpt><trkpt lat="39.24528842312014" lon="9.065078097809378"><ele>-0.6000000000000001</ele><time>2026-04-16T21:22:40Z</time></trkpt><trkpt lat="39.24522832000142" lon="9.065181722368765"><ele>0.7999999999999998</ele><time>2026-04-16T21:22:41Z</time></trkpt><trkpt lat="39.2451660613122" lon="9.065227471016112"><ele>2.2</ele><time>2026-04-16T21:22:42Z</time></trkpt><trkpt lat="39.24503128229896" lon="9.065347923439965"><ele>3.6</ele><time>2026-04-16T21:22:44Z</time></trkpt><trkpt lat="39.24496102438311" lon="9.065406113444267"><ele>5.0</ele><time>2026-04-16T21:22:45Z</time></trkpt><trkpt lat="39.244899354199" lon="9.065447129173338"><ele>5.0</ele><time>2026-04-16T21:22:46Z</time></trkpt><trkpt lat="39.244823807762586" lon="9.065493548708636"><ele>5.0</ele><time>2026-04-16T21:22:47Z</time></trkpt><trkpt lat="39.24475727314718" lon="9.065545829018864"><ele>5.0</ele><time>2026-04-16T21:22:48Z</time></trkpt><trkpt lat="39.24468905258878" lon="9.065609250014134"><ele>5.0</ele><time>2026-04-16T21:22:49Z</time></trkpt><trkpt lat="39.2445628598847" lon="9.065719692534321"><ele>5.0</ele><time>2026-04-16T21:22:51Z</time></trkpt><trkpt lat="39.24444354869" lon="9.065801223856026"><ele>4.8</ele><time>2026-04-16T21:22:53Z</time></trkpt><trkpt lat="39.244335158088575" lon="9.065843568254987"><ele>4.6</ele><time>2026-04-16T21:22:55Z</time></trkpt><trkpt lat="39.244211070006685" lon="9.065913233510223"><ele>4.4</ele><time>2026-04-16T21:22:57Z</time></trkpt><trkpt lat="39.24413848433477" lon="9.065901382919602"><ele>4.2</ele><time>2026-04-16T21:22:58Z</time></trkpt><trkpt lat="39.244014964607544" lon="9.065893160134642"><ele>4.0</ele><time>2026-04-16T21:23:00Z</time></trkpt><trkpt lat="39.24393158453877" lon="9.06594069229685"><ele>3.0</ele><time>2026-04-16T21:23:02Z</time></trkpt><trkpt lat="39.24391767101699" lon="9.065836583675868"><ele>2.0000000000000004</ele><time>2026-04-16T21:23:05Z</time></trkpt><trkpt lat="39.243796537787155" lon="9.065848241519602"><ele>1.0</ele><time>2026-04-16T21:23:09Z</time></trkpt><trkpt lat="39.24372564063236" lon="9.065778240895806"><ele>0.0</ele><time>2026-04-16T21:23:12Z</time></trkpt><trkpt lat="39.24365869007903" lon="9.065748208574558"><ele>-1.0</ele><time>2026-04-16T21:23:14Z</time></trkpt><trkpt lat="39.24356346254459" lon="9.065746600509044"><ele>-1.1666666666666665</ele><time>2026-04-16T21:23:16Z</time></trkpt><trkpt lat="39.24349659378506" lon="9.065713656210429"><ele>-1.3333333333333333</ele><time>2026-04-16T21:23:18Z</time></trkpt><trkpt lat="39.243405397357236" lon="9.065647006192533"><ele>-1.5</ele><time>2026-04-16T21:23:20Z</time></trkpt><trkpt lat="39.2433375060691" lon="9.065651860979987"><ele>-1.6666666666666665</ele><time>2026-04-16T21:23:21Z</time></trkpt><trkpt lat="39.24326831700102" lon="9.06564568988975"><ele>-1.8333333333333333</ele><time>2026-04-16T21:23:22Z</time></trkpt><trkpt lat="39.24314818105053" lon="9.065637512667536"><ele>-2.0</ele><time>2026-04-16T21:23:24Z</time></trkpt><trkpt lat="39.24302729542283" lon="9.065584721238743"><ele>-2.75</ele><time>2026-04-16T21:23:26Z</time></trkpt><trkpt lat="39.24284618636618" lon="9.065490925719073"><ele>-3.5</ele><time>2026-04-16T21:23:29Z</time></trkpt><trkpt lat="39.24271660589989" lon="9.065486637812823"><ele>-4.25</ele><time>2026-04-16T21:23:31Z</time></trkpt><trkpt lat="39.24263779103767" lon="9.065521484164718"><ele>-5.0</ele><time>2026-04-16T21:23:32Z</time></trkpt><trkpt lat="39.242578522655286" lon="9.06548765257655"><ele>-5.0</ele><time>2026-04-16T21:23:33Z</time></trkpt><trkpt lat="39.24248943240494" lon="9.065383732746996"><ele>-5.0</ele><time>2026-04-16T21:23:35Z</time></trkpt><trkpt lat="39.24246955884923" lon="9.065300131656512"><ele>-5.0</ele><time>2026-04-16T21:23:36Z</time></trkpt><trkpt lat="39.2423892975663" lon="9.065186995902485"><ele>-5.0</ele><time>2026-04-16T21:23:38Z</time></trkpt><trkpt lat="39.24234382020424" lon="9.065094998210476"><ele>-5.0</ele><time>2026-04-16T21:23:40Z</time></trkpt><trkpt lat="39.24233503564907" lon="9.064972916971834"><ele>-4.25</ele><time>2026-04-16T21:23:42Z</time></trkpt><trkpt lat="39.24234634822154" lon="9.064861455367424"><ele>-3.5</ele><time>2026-04-16T21:23:44Z</time></trkpt><trkpt lat="39.242399794147026" lon="9.064772039401626"><ele>-2.75</ele><time>2026-04-16T21:23:47Z</time></trkpt><trkpt lat="39.24251608017742" lon="9.06463469075957"><ele>-2.0</ele><time>2026-04-16T21:24:22.999Z</time></trkpt><trkpt lat="39.242659080165964" lon="9.064564190625614"><ele>-2.0</ele><time>2026-04-16T21:24:30.999Z</time></trkpt><trkpt lat="39.243688478411016" lon="9.063322203841803"><ele>-1.0</ele><time>2026-04-16T21:24:32.999Z</time></trkpt><trkpt lat="39.24389883914288" lon="9.063126407752478"><ele>0.0</ele><time>2026-04-16T21:24:33.999Z</time></trkpt><trkpt lat="39.24415309241357" lon="9.06285028149137"><ele>0.0</ele><time>2026-04-16T21:24:34.999Z</time></trkpt><trkpt lat="39.24438707820202" lon="9.06255253813378"><ele>0.0</ele><time>2026-04-16T21:24:36Z</time></trkpt><trkpt lat="39.244603473713454" lon="9.062266223686708"><ele>1.0</ele><time>2026-04-16T21:24:37Z</time></trkpt><trkpt lat="39.24487112062016" lon="9.061962777705963"><ele>2.0</ele><time>2026-04-16T21:24:38Z</time></trkpt><trkpt lat="39.24512677898873" lon="9.061679145083463"><ele>2.0</ele><time>2026-04-16T21:24:39Z</time></trkpt><trkpt lat="39.24539042703596" lon="9.061424089810055"><ele>2.0</ele><time>2026-04-16T21:24:40Z</time></trkpt><trkpt lat="39.24572608316896" lon="9.061068091747078"><ele>3.0</ele><time>2026-04-16T21:24:41Z</time></trkpt><trkpt lat="39.24607636740377" lon="9.060572771399533"><ele>3.0</ele><time>2026-04-16T21:24:42Z</time></trkpt><trkpt lat="39.24640839853779" lon="9.060149597842129"><ele>2.0</ele><time>2026-04-16T21:24:43Z</time></trkpt><trkpt lat="39.24673312857017" lon="9.059756207103993"><ele>1.0</ele><time>2026-04-16T21:24:44Z</time></trkpt><trkpt lat="39.24752207911016" lon="9.058875858102782"><ele>1.0</ele><time>2026-04-16T21:24:46Z</time></trkpt><trkpt lat="39.247939646051215" lon="9.058402945235922"><ele>1.0</ele><time>2026-04-16T21:24:47Z</time></trkpt><trkpt lat="39.248355570179534" lon="9.0579659840964"><ele>1.0</ele><time>2026-04-16T21:24:48Z</time></trkpt><trkpt lat="39.24877982038718" lon="9.057504473641485"><ele>0.0</ele><time>2026-04-16T21:24:49Z</time></trkpt><trkpt lat="39.24920736044651" lon="9.057216475045033"><ele>0.0</ele><time>2026-04-16T21:24:50Z</time></trkpt><trkpt lat="39.24963759673879" lon="9.056667465894186"><ele>-2.0</ele><time>2026-04-16T21:24:51Z</time></trkpt><trkpt lat="39.25010134341604" lon="9.056081552205018"><ele>0.0</ele><time>2026-04-16T21:24:52Z</time></trkpt><trkpt lat="39.25054213294447" lon="9.055468354076412"><ele>-1.0</ele><time>2026-04-16T21:24:53Z</time></trkpt><trkpt lat="39.25101931036424" lon="9.054418880979735"><ele>-1.0</ele><time>2026-04-16T21:24:54Z</time></trkpt><trkpt lat="39.251590760759235" lon="9.053940127060743"><ele>-1.0</ele><time>2026-04-16T21:24:55Z</time></trkpt><trkpt lat="39.25225057266942" lon="9.05366509951962"><ele>-2.0</ele><time>2026-04-16T21:24:56Z</time></trkpt><trkpt lat="39.25283911005013" lon="9.053184395157308"><ele>0.0</ele><time>2026-04-16T21:24:57Z</time></trkpt><trkpt lat="39.253443743087644" lon="9.052687185453308"><ele>-1.0</ele><time>2026-04-16T21:24:58.016Z</time></trkpt><trkpt lat="39.26410583766105" lon="9.041709449592261"><ele>-1.0</ele><time>2026-04-16T21:25:17.01Z</time></trkpt></trkseg></trk></gpx>